sensor_id;sensor_type;location;lat;lon;timestamp;temperature;humidity
76897;SHT30;65856;52.178;21.176;2023-01-24T00:01:15;4.06;80.26
76897;SHT30;65856;52.178;21.176;2023-01-24T00:03:43;4.03;80.32
76897;SHT30;65856;52.178;21.176;2023-01-24T00:06:11;4.03;80.40
76897;SHT30;65856;52.178;21.176;2023-01-24T00:08:39;4.07;80.42
76897;SHT30;65856;52.178;21.176;2023-01-24T00:11:07;4.11;80.42
76897;SHT30;65856;52.178;21.176;2023-01-24T00:13:38;4.12;80.40
76897;SHT30;65856;52.178;21.176;2023-01-24T00:16:06;4.12;80.38
76897;SHT30;65856;52.178;21.176;2023-01-24T00:18:38;4.11;80.46
76897;SHT30;65856;52.178;21.176;2023-01-24T00:21:07;4.09;80.40
76897;SHT30;65856;52.178;21.176;2023-01-24T00:23:38;4.04;80.45
76897;SHT30;65856;52.178;21.176;2023-01-24T00:26:07;4.03;80.53
76897;SHT30;65856;52.178;21.176;2023-01-24T00:28:35;4.05;80.53
76897;SHT30;65856;52.178;21.176;2023-01-24T00:31:03;4.08;80.57
76897;SHT30;65856;52.178;21.176;2023-01-24T00:33:32;4.13;80.50
76897;SHT30;65856;52.178;21.176;2023-01-24T00:36:00;4.16;80.42
76897;SHT30;65856;52.178;21.176;2023-01-24T00:38:29;4.19;80.40
76897;SHT30;65856;52.178;21.176;2023-01-24T00:40:57;4.22;80.31
76897;SHT30;65856;52.178;21.176;2023-01-24T00:43:25;4.25;80.23
76897;SHT30;65856;52.178;21.176;2023-01-24T00:45:53;4.25;80.22
76897;SHT30;65856;52.178;21.176;2023-01-24T00:48:21;4.22;80.23
76897;SHT30;65856;52.178;21.176;2023-01-24T00:50:49;4.21;80.20
76897;SHT30;65856;52.178;21.176;2023-01-24T00:53:17;4.20;80.20
76897;SHT30;65856;52.178;21.176;2023-01-24T00:55:45;4.19;80.20
76897;SHT30;65856;52.178;21.176;2023-01-24T00:58:16;4.19;80.27
76897;SHT30;65856;52.178;21.176;2023-01-24T01:00:43;4.20;80.30
76897;SHT30;65856;52.178;21.176;2023-01-24T01:03:11;4.23;80.25
76897;SHT30;65856;52.178;21.176;2023-01-24T01:05:42;4.27;80.21
76897;SHT30;65856;52.178;21.176;2023-01-24T01:08:11;4.28;80.19
76897;SHT30;65856;52.178;21.176;2023-01-24T01:10:39;4.29;80.12
76897;SHT30;65856;52.178;21.176;2023-01-24T01:13:08;4.28;80.10
76897;SHT30;65856;52.178;21.176;2023-01-24T01:15:38;4.28;80.11
76897;SHT30;65856;52.178;21.176;2023-01-24T01:18:05;4.27;80.12
76897;SHT30;65856;52.178;21.176;2023-01-24T01:20:33;4.26;80.12
76897;SHT30;65856;52.178;21.176;2023-01-24T01:23:01;4.24;80.19
76897;SHT30;65856;52.178;21.176;2023-01-24T01:25:29;4.23;80.22
76897;SHT30;65856;52.178;21.176;2023-01-24T01:27:57;4.22;80.28
76897;SHT30;65856;52.178;21.176;2023-01-24T01:30:25;4.25;80.29
76897;SHT30;65856;52.178;21.176;2023-01-24T01:32:52;4.29;80.20
76897;SHT30;65856;52.178;21.176;2023-01-24T01:35:20;4.33;80.17
76897;SHT30;65856;52.178;21.176;2023-01-24T01:37:48;4.33;80.09
76897;SHT30;65856;52.178;21.176;2023-01-24T01:40:16;4.32;80.12
76897;SHT30;65856;52.178;21.176;2023-01-24T01:42:47;4.31;80.19
76897;SHT30;65856;52.178;21.176;2023-01-24T01:45:29;4.30;80.21
76897;SHT30;65856;52.178;21.176;2023-01-24T01:48:11;4.27;80.23
76897;SHT30;65856;52.178;21.176;2023-01-24T01:50:50;4.27;80.30
76897;SHT30;65856;52.178;21.176;2023-01-24T01:53:26;4.27;80.30
76897;SHT30;65856;52.178;21.176;2023-01-24T01:56:00;4.28;80.30
76897;SHT30;65856;52.178;21.176;2023-01-24T01:58:35;4.31;80.30
76897;SHT30;65856;52.178;21.176;2023-01-24T02:01:05;4.30;80.33
76897;SHT30;65856;52.178;21.176;2023-01-24T02:03:34;4.31;80.38
76897;SHT30;65856;52.178;21.176;2023-01-24T02:06:13;4.34;80.40
76897;SHT30;65856;52.178;21.176;2023-01-24T02:08:55;4.35;80.40
76897;SHT30;65856;52.178;21.176;2023-01-24T02:11:26;4.33;80.35
76897;SHT30;65856;52.178;21.176;2023-01-24T02:14:04;4.28;80.35
76897;SHT30;65856;52.178;21.176;2023-01-24T02:16:54;4.24;80.40
76897;SHT30;65856;52.178;21.176;2023-01-24T02:19:32;4.22;80.44
76897;SHT30;65856;52.178;21.176;2023-01-24T02:22:14;4.25;80.47
76897;SHT30;65856;52.178;21.176;2023-01-24T02:24:54;4.25;80.50
76897;SHT30;65856;52.178;21.176;2023-01-24T02:27:34;4.24;80.50
76897;SHT30;65856;52.178;21.176;2023-01-24T02:30:02;4.24;80.58
76897;SHT30;65856;52.178;21.176;2023-01-24T02:32:32;4.21;80.56
76897;SHT30;65856;52.178;21.176;2023-01-24T02:34:59;4.19;80.61
76897;SHT30;65856;52.178;21.176;2023-01-24T02:37:27;4.18;80.63
76897;SHT30;65856;52.178;21.176;2023-01-24T02:39:55;4.19;80.70
76897;SHT30;65856;52.178;21.176;2023-01-24T02:42:30;4.19;80.67
76897;SHT30;65856;52.178;21.176;2023-01-24T02:45:02;4.20;80.69
76897;SHT30;65856;52.178;21.176;2023-01-24T02:47:37;4.27;80.61
76897;SHT30;65856;52.178;21.176;2023-01-24T02:50:11;4.28;80.58
76897;SHT30;65856;52.178;21.176;2023-01-24T02:52:39;4.28;80.54
76897;SHT30;65856;52.178;21.176;2023-01-24T02:55:25;4.26;80.55
76897;SHT30;65856;52.178;21.176;2023-01-24T02:57:53;4.24;80.58
76897;SHT30;65856;52.178;21.176;2023-01-24T03:00:33;4.25;80.59
76897;SHT30;65856;52.178;21.176;2023-01-24T03:03:02;4.28;80.54
76897;SHT30;65856;52.178;21.176;2023-01-24T03:05:31;4.29;80.57
76897;SHT30;65856;52.178;21.176;2023-01-24T03:08:19;4.28;80.54
76897;SHT30;65856;52.178;21.176;2023-01-24T03:10:46;4.26;80.58
76897;SHT30;65856;52.178;21.176;2023-01-24T03:13:14;4.30;80.59
76897;SHT30;65856;52.178;21.176;2023-01-24T03:16:00;4.34;80.50
76897;SHT30;65856;52.178;21.176;2023-01-24T03:18:46;4.32;80.44
76897;SHT30;65856;52.178;21.176;2023-01-24T03:21:32;4.33;80.40
76897;SHT30;65856;52.178;21.176;2023-01-24T03:24:19;4.34;80.43
76897;SHT30;65856;52.178;21.176;2023-01-24T03:27:05;4.31;80.41
76897;SHT30;65856;52.178;21.176;2023-01-24T03:29:51;4.30;80.41
76897;SHT30;65856;52.178;21.176;2023-01-24T03:32:37;4.27;80.49
76897;SHT30;65856;52.178;21.176;2023-01-24T03:35:24;4.25;80.50
76897;SHT30;65856;52.178;21.176;2023-01-24T03:37:52;4.25;80.51
76897;SHT30;65856;52.178;21.176;2023-01-24T03:40:38;4.22;80.59
76897;SHT30;65856;52.178;21.176;2023-01-24T03:43:06;4.22;80.61
76897;SHT30;65856;52.178;21.176;2023-01-24T03:45:35;4.22;80.60
76897;SHT30;65856;52.178;21.176;2023-01-24T03:48:05;4.24;80.60
76897;SHT30;65856;52.178;21.176;2023-01-24T03:50:38;4.26;80.61
76897;SHT30;65856;52.178;21.176;2023-01-24T03:53:28;4.27;80.60
76897;SHT30;65856;52.178;21.176;2023-01-24T03:55:58;4.30;80.61
76897;SHT30;65856;52.178;21.176;2023-01-24T03:58:28;4.33;80.59
76897;SHT30;65856;52.178;21.176;2023-01-24T04:00:58;4.32;80.50
76897;SHT30;65856;52.178;21.176;2023-01-24T04:03:26;4.29;80.51
76897;SHT30;65856;52.178;21.176;2023-01-24T04:05:54;4.29;80.53
76897;SHT30;65856;52.178;21.176;2023-01-24T04:08:22;4.28;80.50
76897;SHT30;65856;52.178;21.176;2023-01-24T04:10:50;4.25;80.50
76897;SHT30;65856;52.178;21.176;2023-01-24T04:13:20;4.23;80.57
76897;SHT30;65856;52.178;21.176;2023-01-24T04:15:48;4.21;80.59
76897;SHT30;65856;52.178;21.176;2023-01-24T04:18:15;4.17;80.60
76897;SHT30;65856;52.178;21.176;2023-01-24T04:20:43;4.14;80.68
76897;SHT30;65856;52.178;21.176;2023-01-24T04:23:11;4.13;80.70
76897;SHT30;65856;52.178;21.176;2023-01-24T04:25:39;4.13;80.76
76897;SHT30;65856;52.178;21.176;2023-01-24T04:28:06;4.12;80.78
76897;SHT30;65856;52.178;21.176;2023-01-24T04:30:34;4.15;80.83
76897;SHT30;65856;52.178;21.176;2023-01-24T04:33:02;4.17;80.80
76897;SHT30;65856;52.178;21.176;2023-01-24T04:35:29;4.18;80.72
76897;SHT30;65856;52.178;21.176;2023-01-24T04:37:57;4.21;80.70
76897;SHT30;65856;52.178;21.176;2023-01-24T04:40:27;4.23;80.63
76897;SHT30;65856;52.178;21.176;2023-01-24T04:42:55;4.24;80.63
76897;SHT30;65856;52.178;21.176;2023-01-24T04:45:23;4.26;80.68
76897;SHT30;65856;52.178;21.176;2023-01-24T04:47:53;4.27;80.61
76897;SHT30;65856;52.178;21.176;2023-01-24T04:50:21;4.24;80.62
76897;SHT30;65856;52.178;21.176;2023-01-24T04:52:48;4.24;80.64
76897;SHT30;65856;52.178;21.176;2023-01-24T04:55:16;4.26;80.62
76897;SHT30;65856;52.178;21.176;2023-01-24T04:57:44;4.28;80.64
76897;SHT30;65856;52.178;21.176;2023-01-24T05:00:12;4.31;80.59
76897;SHT30;65856;52.178;21.176;2023-01-24T05:02:42;4.32;80.52
76897;SHT30;65856;52.178;21.176;2023-01-24T05:05:09;4.33;80.47
76897;SHT30;65856;52.178;21.176;2023-01-24T05:07:37;4.30;80.43
76897;SHT30;65856;52.178;21.176;2023-01-24T05:10:05;4.27;80.50
76897;SHT30;65856;52.178;21.176;2023-01-24T05:12:36;4.25;80.56
76897;SHT30;65856;52.178;21.176;2023-01-24T05:15:04;4.25;80.54
76897;SHT30;65856;52.178;21.176;2023-01-24T05:17:34;4.23;80.52
76897;SHT30;65856;52.178;21.176;2023-01-24T05:20:02;4.23;80.50
76897;SHT30;65856;52.178;21.176;2023-01-24T05:22:31;4.27;80.50
76897;SHT30;65856;52.178;21.176;2023-01-24T05:25:00;4.28;80.49
76897;SHT30;65856;52.178;21.176;2023-01-24T05:27:28;4.30;80.50
76897;SHT30;65856;52.178;21.176;2023-01-24T05:29:56;4.34;80.48
76897;SHT30;65856;52.178;21.176;2023-01-24T05:32:23;4.36;80.41
76897;SHT30;65856;52.178;21.176;2023-01-24T05:34:52;4.38;80.38
76897;SHT30;65856;52.178;21.176;2023-01-24T05:37:19;4.37;80.30
76897;SHT30;65856;52.178;21.176;2023-01-24T05:39:47;4.38;80.28
76897;SHT30;65856;52.178;21.176;2023-01-24T05:42:15;4.37;80.26
76897;SHT30;65856;52.178;21.176;2023-01-24T05:44:43;4.41;80.23
76897;SHT30;65856;52.178;21.176;2023-01-24T05:47:10;4.44;80.20
76897;SHT30;65856;52.178;21.176;2023-01-24T05:49:38;4.48;80.19
76897;SHT30;65856;52.178;21.176;2023-01-24T05:52:06;4.52;80.12
76897;SHT30;65856;52.178;21.176;2023-01-24T05:54:33;4.50;80.10
76897;SHT30;65856;52.178;21.176;2023-01-24T05:57:01;4.45;80.17
76897;SHT30;65856;52.178;21.176;2023-01-24T05:59:29;4.42;80.20
76897;SHT30;65856;52.178;21.176;2023-01-24T06:01:57;4.37;80.20
76897;SHT30;65856;52.178;21.176;2023-01-24T06:04:25;4.34;80.29
76897;SHT30;65856;52.178;21.176;2023-01-24T06:06:52;4.32;80.33
76897;SHT30;65856;52.178;21.176;2023-01-24T06:09:20;4.36;80.36
76897;SHT30;65856;52.178;21.176;2023-01-24T06:11:49;4.40;80.29
76897;SHT30;65856;52.178;21.176;2023-01-24T06:14:17;4.43;80.20
76897;SHT30;65856;52.178;21.176;2023-01-24T06:16:45;4.46;80.19
76897;SHT30;65856;52.178;21.176;2023-01-24T06:19:13;4.46;80.10
76897;SHT30;65856;52.178;21.176;2023-01-24T06:21:43;4.40;80.10
76897;SHT30;65856;52.178;21.176;2023-01-24T06:24:16;4.36;80.10
76897;SHT30;65856;52.178;21.176;2023-01-24T06:26:47;4.32;80.20
76897;SHT30;65856;52.178;21.176;2023-01-24T06:29:17;4.31;80.20
76897;SHT30;65856;52.178;21.176;2023-01-24T06:31:50;4.33;80.15
76897;SHT30;65856;52.178;21.176;2023-01-24T06:34:37;4.37;80.10
76897;SHT30;65856;52.178;21.176;2023-01-24T06:37:31;4.41;80.10
76897;SHT30;65856;52.178;21.176;2023-01-24T06:40:11;4.44;80.10
76897;SHT30;65856;52.178;21.176;2023-01-24T06:42:42;4.41;80.10
76897;SHT30;65856;52.178;21.176;2023-01-24T06:45:12;4.42;80.14
76897;SHT30;65856;52.178;21.176;2023-01-24T06:47:40;4.40;80.12
76897;SHT30;65856;52.178;21.176;2023-01-24T06:50:10;4.38;80.20
76897;SHT30;65856;52.178;21.176;2023-01-24T06:52:41;4.35;80.21
76897;SHT30;65856;52.178;21.176;2023-01-24T06:55:11;4.36;80.20
76897;SHT30;65856;52.178;21.176;2023-01-24T06:57:39;4.34;80.20
76897;SHT30;65856;52.178;21.176;2023-01-24T07:00:08;4.35;80.21
76897;SHT30;65856;52.178;21.176;2023-01-24T07:02:38;4.34;80.28
76897;SHT30;65856;52.178;21.176;2023-01-24T07:05:07;4.34;80.34
76897;SHT30;65856;52.178;21.176;2023-01-24T07:07:35;4.36;80.45
76897;SHT30;65856;52.178;21.176;2023-01-24T07:10:04;4.41;80.45
76897;SHT30;65856;52.178;21.176;2023-01-24T07:12:33;4.41;80.33
76897;SHT30;65856;52.178;21.176;2023-01-24T07:15:01;4.40;80.30
76897;SHT30;65856;52.178;21.176;2023-01-24T07:17:30;4.40;80.28
76897;SHT30;65856;52.178;21.176;2023-01-24T07:19:59;4.37;80.30
76897;SHT30;65856;52.178;21.176;2023-01-24T07:22:29;4.36;80.34
76897;SHT30;65856;52.178;21.176;2023-01-24T07:24:58;4.37;80.40
76897;SHT30;65856;52.178;21.176;2023-01-24T07:27:27;4.38;80.31
76897;SHT30;65856;52.178;21.176;2023-01-24T07:29:56;4.41;80.30
76897;SHT30;65856;52.178;21.176;2023-01-24T07:32:24;4.43;80.31
76897;SHT30;65856;52.178;21.176;2023-01-24T07:34:52;4.46;80.21
76897;SHT30;65856;52.178;21.176;2023-01-24T07:37:19;4.47;80.19
76897;SHT30;65856;52.178;21.176;2023-01-24T07:39:48;4.50;80.24
76897;SHT30;65856;52.178;21.176;2023-01-24T07:42:16;4.54;80.10
76897;SHT30;65856;52.178;21.176;2023-01-24T07:44:44;4.56;80.02
76897;SHT30;65856;52.178;21.176;2023-01-24T07:47:11;4.58;80.10
76897;SHT30;65856;52.178;21.176;2023-01-24T07:49:39;4.60;80.15
76897;SHT30;65856;52.178;21.176;2023-01-24T07:52:07;4.62;80.11
76897;SHT30;65856;52.178;21.176;2023-01-24T07:54:34;4.61;80.12
76897;SHT30;65856;52.178;21.176;2023-01-24T07:57:02;4.64;80.10
76897;SHT30;65856;52.178;21.176;2023-01-24T07:59:30;4.64;80.00
76897;SHT30;65856;52.178;21.176;2023-01-24T08:01:57;4.65;80.03
76897;SHT30;65856;52.178;21.176;2023-01-24T08:04:25;4.70;79.99
76897;SHT30;65856;52.178;21.176;2023-01-24T08:06:53;4.73;79.89
76897;SHT30;65856;52.178;21.176;2023-01-24T08:09:39;4.75;79.83
76897;SHT30;65856;52.178;21.176;2023-01-24T08:12:06;4.76;79.72
76897;SHT30;65856;52.178;21.176;2023-01-24T08:14:34;4.76;79.60
76897;SHT30;65856;52.178;21.176;2023-01-24T08:17:02;4.78;79.60
76897;SHT30;65856;52.178;21.176;2023-01-24T08:19:30;4.78;79.66
76897;SHT30;65856;52.178;21.176;2023-01-24T08:21:57;4.76;79.70
76897;SHT30;65856;52.178;21.176;2023-01-24T08:24:25;4.74;79.71
76897;SHT30;65856;52.178;21.176;2023-01-24T08:26:53;4.74;79.71
76897;SHT30;65856;52.178;21.176;2023-01-24T08:29:20;4.73;79.70
76897;SHT30;65856;52.178;21.176;2023-01-24T08:31:48;4.71;79.70
76897;SHT30;65856;52.178;21.176;2023-01-24T08:34:16;4.70;79.79
76897;SHT30;65856;52.178;21.176;2023-01-24T08:36:43;4.71;79.79
76897;SHT30;65856;52.178;21.176;2023-01-24T08:39:11;4.74;79.80
76897;SHT30;65856;52.178;21.176;2023-01-24T08:41:40;4.78;79.78
76897;SHT30;65856;52.178;21.176;2023-01-24T08:44:11;4.79;79.66
76897;SHT30;65856;52.178;21.176;2023-01-24T08:46:39;4.74;79.73
76897;SHT30;65856;52.178;21.176;2023-01-24T08:49:07;4.78;79.78
76897;SHT30;65856;52.178;21.176;2023-01-24T08:51:36;4.82;79.69
76897;SHT30;65856;52.178;21.176;2023-01-24T08:54:04;4.85;79.69
76897;SHT30;65856;52.178;21.176;2023-01-24T08:56:33;4.87;79.63
76897;SHT30;65856;52.178;21.176;2023-01-24T08:59:01;4.89;79.70
76897;SHT30;65856;52.178;21.176;2023-01-24T09:01:29;4.92;79.60
76897;SHT30;65856;52.178;21.176;2023-01-24T09:03:57;4.96;79.58
76897;SHT30;65856;52.178;21.176;2023-01-24T09:06:25;4.97;79.41
76897;SHT30;65856;52.178;21.176;2023-01-24T09:08:54;5.01;79.43
76897;SHT30;65856;52.178;21.176;2023-01-24T09:11:21;5.01;79.50
76897;SHT30;65856;52.178;21.176;2023-01-24T09:13:49;4.99;79.53
76897;SHT30;65856;52.178;21.176;2023-01-24T09:16:17;5.01;79.57
76897;SHT30;65856;52.178;21.176;2023-01-24T09:18:45;5.02;79.50
76897;SHT30;65856;52.178;21.176;2023-01-24T09:21:12;5.05;79.49
76897;SHT30;65856;52.178;21.176;2023-01-24T09:23:40;5.07;79.50
76897;SHT30;65856;52.178;21.176;2023-01-24T09:26:08;5.13;79.45
76897;SHT30;65856;52.178;21.176;2023-01-24T09:28:35;5.13;79.43
76897;SHT30;65856;52.178;21.176;2023-01-24T09:31:06;5.14;79.40
76897;SHT30;65856;52.178;21.176;2023-01-24T09:33:36;5.16;79.22
76897;SHT30;65856;52.178;21.176;2023-01-24T09:36:04;5.16;79.18
76897;SHT30;65856;52.178;21.176;2023-01-24T09:38:33;5.18;79.10
76897;SHT30;65856;52.178;21.176;2023-01-24T09:41:06;5.19;79.14
76897;SHT30;65856;52.178;21.176;2023-01-24T09:43:44;5.21;79.07
76897;SHT30;65856;52.178;21.176;2023-01-24T09:46:22;5.20;79.04
76897;SHT30;65856;52.178;21.176;2023-01-24T09:48:58;5.20;79.06
76897;SHT30;65856;52.178;21.176;2023-01-24T09:51:38;5.20;79.12
76897;SHT30;65856;52.178;21.176;2023-01-24T09:54:15;5.20;79.26
76897;SHT30;65856;52.178;21.176;2023-01-24T09:56:52;5.19;79.30
76897;SHT30;65856;52.178;21.176;2023-01-24T09:59:23;5.20;79.30
76897;SHT30;65856;52.178;21.176;2023-01-24T10:02:05;5.20;79.22
76897;SHT30;65856;52.178;21.176;2023-01-24T10:04:43;5.19;79.25
76897;SHT30;65856;52.178;21.176;2023-01-24T10:07:22;5.25;79.35
76897;SHT30;65856;52.178;21.176;2023-01-24T10:10:39;5.20;79.16
76897;SHT30;65856;52.178;21.176;2023-01-24T10:13:26;5.18;79.22
76897;SHT30;65856;52.178;21.176;2023-01-24T10:16:18;5.21;79.31
76897;SHT30;65856;52.178;21.176;2023-01-24T10:19:17;5.19;79.29
76897;SHT30;65856;52.178;21.176;2023-01-24T10:22:06;5.15;79.22
76897;SHT30;65856;52.178;21.176;2023-01-24T10:24:51;5.11;79.30
76897;SHT30;65856;52.178;21.176;2023-01-24T10:27:28;5.05;79.31
76897;SHT30;65856;52.178;21.176;2023-01-24T10:30:05;5.04;79.39
76897;SHT30;65856;52.178;21.176;2023-01-24T10:32:43;5.10;79.33
76897;SHT30;65856;52.178;21.176;2023-01-24T10:35:15;5.18;79.60
76897;SHT30;65856;52.178;21.176;2023-01-24T10:37:53;5.32;79.45
76897;SHT30;65856;52.178;21.176;2023-01-24T10:40:24;5.32;79.23
76897;SHT30;65856;52.178;21.176;2023-01-24T10:42:52;5.31;79.15
76897;SHT30;65856;52.178;21.176;2023-01-24T10:45:33;5.27;79.11
76897;SHT30;65856;52.178;21.176;2023-01-24T10:48:18;5.24;79.11
76897;SHT30;65856;52.178;21.176;2023-01-24T10:51:10;5.26;79.05
76897;SHT30;65856;52.178;21.176;2023-01-24T10:53:41;5.25;79.10
76897;SHT30;65856;52.178;21.176;2023-01-24T10:56:10;5.28;79.13
76897;SHT30;65856;52.178;21.176;2023-01-24T10:58:42;5.33;78.96
76897;SHT30;65856;52.178;21.176;2023-01-24T11:01:22;5.32;78.88
76897;SHT30;65856;52.178;21.176;2023-01-24T11:04:01;5.32;78.93
76897;SHT30;65856;52.178;21.176;2023-01-24T11:06:45;5.28;78.83
76897;SHT30;65856;52.178;21.176;2023-01-24T11:09:16;5.24;78.91
76897;SHT30;65856;52.178;21.176;2023-01-24T11:11:46;5.22;78.90
76897;SHT30;65856;52.178;21.176;2023-01-24T11:14:19;5.22;78.90
76897;SHT30;65856;52.178;21.176;2023-01-24T11:16:50;5.20;78.88
76897;SHT30;65856;52.178;21.176;2023-01-24T11:19:21;5.22;78.83
76897;SHT30;65856;52.178;21.176;2023-01-24T11:21:54;5.26;78.83
76897;SHT30;65856;52.178;21.176;2023-01-24T11:24:24;5.29;78.82
76897;SHT30;65856;52.178;21.176;2023-01-24T11:26:56;5.29;78.88
76897;SHT30;65856;52.178;21.176;2023-01-24T11:29:29;5.28;79.00
76897;SHT30;65856;52.178;21.176;2023-01-24T11:32:00;5.32;78.90
76897;SHT30;65856;52.178;21.176;2023-01-24T11:34:51;5.29;78.92
76897;SHT30;65856;52.178;21.176;2023-01-24T11:37:35;5.26;78.96
76897;SHT30;65856;52.178;21.176;2023-01-24T11:40:24;5.25;78.91
76897;SHT30;65856;52.178;21.176;2023-01-24T11:43:19;5.28;78.90
76897;SHT30;65856;52.178;21.176;2023-01-24T11:46:10;5.28;78.90
76897;SHT30;65856;52.178;21.176;2023-01-24T11:48:52;5.28;78.81
76897;SHT30;65856;52.178;21.176;2023-01-24T11:51:32;5.27;78.62
76897;SHT30;65856;52.178;21.176;2023-01-24T11:54:16;5.26;78.66
76897;SHT30;65856;52.178;21.176;2023-01-24T11:57:00;5.23;78.63
76897;SHT30;65856;52.178;21.176;2023-01-24T11:59:45;5.22;78.70
76897;SHT30;65856;52.178;21.176;2023-01-24T12:02:39;5.18;78.63
76897;SHT30;65856;52.178;21.176;2023-01-24T12:05:42;5.14;78.72
76897;SHT30;65856;52.178;21.176;2023-01-24T12:08:30;5.12;78.85
76897;SHT30;65856;52.178;21.176;2023-01-24T12:11:17;5.14;78.92
76897;SHT30;65856;52.178;21.176;2023-01-24T12:13:55;5.17;78.83
76897;SHT30;65856;52.178;21.176;2023-01-24T12:17:00;5.23;78.78
76897;SHT30;65856;52.178;21.176;2023-01-24T12:19:46;5.28;78.68
76897;SHT30;65856;52.178;21.176;2023-01-24T12:22:32;5.30;78.58
76897;SHT30;65856;52.178;21.176;2023-01-24T12:25:02;5.30;78.51
76897;SHT30;65856;52.178;21.176;2023-01-24T12:27:43;5.26;78.64
76897;SHT30;65856;52.178;21.176;2023-01-24T12:30:14;5.28;78.73
76897;SHT30;65856;52.178;21.176;2023-01-24T12:32:52;5.32;78.67
76897;SHT30;65856;52.178;21.176;2023-01-24T12:35:31;5.34;78.55
76897;SHT30;65856;52.178;21.176;2023-01-24T12:38:03;5.33;78.42
76897;SHT30;65856;52.178;21.176;2023-01-24T12:40:44;5.35;78.42
76897;SHT30;65856;52.178;21.176;2023-01-24T12:43:19;5.39;78.35
76897;SHT30;65856;52.178;21.176;2023-01-24T12:46:04;5.42;78.38
76897;SHT30;65856;52.178;21.176;2023-01-24T12:48:42;5.48;78.23
76897;SHT30;65856;52.178;21.176;2023-01-24T12:51:20;5.51;77.97
76897;SHT30;65856;52.178;21.176;2023-01-24T12:53:55;5.51;77.93
76897;SHT30;65856;52.178;21.176;2023-01-24T12:56:30;5.46;77.92
76897;SHT30;65856;52.178;21.176;2023-01-24T12:59:12;5.42;77.99
76897;SHT30;65856;52.178;21.176;2023-01-24T13:04:57;5.41;78.05
76897;SHT30;65856;52.178;21.176;2023-01-24T13:07:42;5.42;78.10
76897;SHT30;65856;52.178;21.176;2023-01-24T13:10:31;5.48;78.10
76897;SHT30;65856;52.178;21.176;2023-01-24T13:13:18;5.53;78.09
76897;SHT30;65856;52.178;21.176;2023-01-24T13:15:54;5.54;78.10
76897;SHT30;65856;52.178;21.176;2023-01-24T13:18:49;5.56;78.02
76897;SHT30;65856;52.178;21.176;2023-01-24T13:21:34;5.57;78.00
76897;SHT30;65856;52.178;21.176;2023-01-24T13:24:25;5.58;77.86
76897;SHT30;65856;52.178;21.176;2023-01-24T13:27:26;5.57;77.70
76897;SHT30;65856;52.178;21.176;2023-01-24T13:30:14;5.57;77.58
76897;SHT30;65856;52.178;21.176;2023-01-24T13:32:56;5.53;77.43
76897;SHT30;65856;52.178;21.176;2023-01-24T13:35:28;5.51;77.51
76897;SHT30;65856;52.178;21.176;2023-01-24T13:37:59;5.47;77.59
76897;SHT30;65856;52.178;21.176;2023-01-24T13:40:31;5.48;77.68
76897;SHT30;65856;52.178;21.176;2023-01-24T13:43:01;5.47;77.63
76897;SHT30;65856;52.178;21.176;2023-01-24T13:45:48;5.47;77.76
76897;SHT30;65856;52.178;21.176;2023-01-24T13:54:16;5.43;77.80
76897;SHT30;65856;52.178;21.176;2023-01-24T13:57:16;5.38;78.00
76897;SHT30;65856;52.178;21.176;2023-01-24T14:05:49;5.58;77.60
76897;SHT30;65856;52.178;21.176;2023-01-24T14:11:54;5.58;77.51
76897;SHT30;65856;52.178;21.176;2023-01-24T14:17:33;5.61;77.46
76897;SHT30;65856;52.178;21.176;2023-01-24T14:20:16;5.60;77.49
76897;SHT30;65856;52.178;21.176;2023-01-24T14:23:00;5.61;77.46
76897;SHT30;65856;52.178;21.176;2023-01-24T14:25:39;5.59;77.54
76897;SHT30;65856;52.178;21.176;2023-01-24T14:28:18;5.59;77.50
76897;SHT30;65856;52.178;21.176;2023-01-24T14:30:57;5.56;77.50
76897;SHT30;65856;52.178;21.176;2023-01-24T14:33:34;5.53;77.49
76897;SHT30;65856;52.178;21.176;2023-01-24T14:36:15;5.53;77.53
76897;SHT30;65856;52.178;21.176;2023-01-24T14:39:15;5.52;77.50
76897;SHT30;65856;52.178;21.176;2023-01-24T14:41:49;5.51;77.43
76897;SHT30;65856;52.178;21.176;2023-01-24T14:44:20;5.49;77.44
76897;SHT30;65856;52.178;21.176;2023-01-24T14:46:52;5.48;77.46
76897;SHT30;65856;52.178;21.176;2023-01-24T14:49:25;5.44;77.49
76897;SHT30;65856;52.178;21.176;2023-01-24T14:51:57;5.42;77.56
76897;SHT30;65856;52.178;21.176;2023-01-24T14:54:26;5.40;77.63
76897;SHT30;65856;52.178;21.176;2023-01-24T14:56:54;5.37;77.71
76897;SHT30;65856;52.178;21.176;2023-01-24T14:59:21;5.36;77.79
76897;SHT30;65856;52.178;21.176;2023-01-24T15:01:50;5.36;77.79
76897;SHT30;65856;52.178;21.176;2023-01-24T15:04:28;5.35;77.80
76897;SHT30;65856;52.178;21.176;2023-01-24T15:07:04;5.37;77.76
76897;SHT30;65856;52.178;21.176;2023-01-24T15:09:36;5.36;77.70
76897;SHT30;65856;52.178;21.176;2023-01-24T15:12:12;5.36;77.70
76897;SHT30;65856;52.178;21.176;2023-01-24T15:14:50;5.36;77.64
76897;SHT30;65856;52.178;21.176;2023-01-24T15:17:21;5.37;77.69
76897;SHT30;65856;52.178;21.176;2023-01-24T15:19:52;5.39;77.72
76897;SHT30;65856;52.178;21.176;2023-01-24T15:22:25;5.36;77.67
76897;SHT30;65856;52.178;21.176;2023-01-24T15:24:57;5.32;77.77
76897;SHT30;65856;52.178;21.176;2023-01-24T15:27:34;5.32;77.79
76897;SHT30;65856;52.178;21.176;2023-01-24T15:30:14;5.31;77.80
76897;SHT30;65856;52.178;21.176;2023-01-24T15:32:45;5.30;77.80
76897;SHT30;65856;52.178;21.176;2023-01-24T15:35:29;5.32;77.80
76897;SHT30;65856;52.178;21.176;2023-01-24T15:38:02;5.35;77.81
76897;SHT30;65856;52.178;21.176;2023-01-24T15:40:51;5.37;77.80
76897;SHT30;65856;52.178;21.176;2023-01-24T15:43:39;5.37;77.80
76897;SHT30;65856;52.178;21.176;2023-01-24T15:46:15;5.35;77.80
76897;SHT30;65856;52.178;21.176;2023-01-24T15:49:18;5.38;77.78
76897;SHT30;65856;52.178;21.176;2023-01-24T15:52:13;5.37;77.74
76897;SHT30;65856;52.178;21.176;2023-01-24T15:54:53;5.36;77.70
76897;SHT30;65856;52.178;21.176;2023-01-24T15:57:25;5.36;77.69
76897;SHT30;65856;52.178;21.176;2023-01-24T15:59:57;5.38;77.59
76897;SHT30;65856;52.178;21.176;2023-01-24T16:02:27;5.40;77.51
76897;SHT30;65856;52.178;21.176;2023-01-24T16:04:55;5.38;77.54
76897;SHT30;65856;52.178;21.176;2023-01-24T16:07:24;5.38;77.52
76897;SHT30;65856;52.178;21.176;2023-01-24T16:09:51;5.41;77.46
76897;SHT30;65856;52.178;21.176;2023-01-24T16:12:21;5.41;77.32
76897;SHT30;65856;52.178;21.176;2023-01-24T16:14:52;5.39;77.36
76897;SHT30;65856;52.178;21.176;2023-01-24T16:17:21;5.35;77.50
76897;SHT30;65856;52.178;21.176;2023-01-24T16:19:51;5.32;77.58
76897;SHT30;65856;52.178;21.176;2023-01-24T16:22:19;5.29;77.60
76897;SHT30;65856;52.178;21.176;2023-01-24T16:24:48;5.32;77.62
76897;SHT30;65856;52.178;21.176;2023-01-24T16:27:16;5.34;77.70
76897;SHT30;65856;52.178;21.176;2023-01-24T16:29:43;5.40;77.70
76897;SHT30;65856;52.178;21.176;2023-01-24T16:32:17;5.40;77.70